Time,TemperatureF,DewpointF,PressureIn,WindDirection,WindDirectionDegrees,WindSpeedMPH,WindSpeedGustMPH,Humidity,HourlyPrecipIn,Conditions,Clouds,dailyrainin,SolarRadiationWatts/m^2,SoftwareType,DateUTC
2013-01-07 00:02:00,13.0,8.0,-100.00,SSE,154,8.0,10.0,79,0.00,,,0.01,1.000000,,2013-01-07 06:02:00,
2013-01-07 00:32:00,14.0,10.0,-100.00,SSE,149,7.0,11.0,82,0.00,,,0.01,1.000000,,2013-01-07 06:32:00,
2013-01-07 00:42:00,14.0,10.0,-100.00,SSE,149,7.0,11.0,82,0.00,,,0.01,1.000000,,2013-01-07 06:42:00,
2013-01-07 00:52:00,14.0,10.0,-100.00,SSE,149,7.0,11.0,82,0.00,,,0.01,1.000000,,2013-01-07 06:52:00,
2013-01-07 01:02:00,14.0,10.0,-100.00,SSE,149,7.0,11.0,82,0.00,,,0.01,1.000000,,2013-01-07 07:02:00,
2013-01-07 01:33:00,14.0,10.0,-100.00,SSE,158,6.0,9.0,83,0.00,,,0.01,1.000000,,2013-01-07 07:33:00,
2013-01-07 01:43:00,14.0,10.0,-100.00,SSE,158,6.0,9.0,83,0.00,,,0.01,1.000000,,2013-01-07 07:43:00,
2013-01-07 01:53:00,14.0,10.0,-100.00,SSE,158,6.0,9.0,83,0.00,,,0.01,1.000000,,2013-01-07 07:53:00,
2013-01-07 02:03:00,14.0,10.0,-100.00,SSE,158,6.0,9.0,83,0.00,,,0.01,1.000000,,2013-01-07 08:03:00,
2013-01-07 02:33:00,15.0,11.0,-100.00,South,174,7.0,10.0,82,0.00,,,0.01,1.000000,,2013-01-07 08:33:00,
2013-01-07 02:43:00,15.0,11.0,-100.00,South,174,7.0,10.0,82,0.00,,,0.01,1.000000,,2013-01-07 08:43:00,
2013-01-07 02:53:00,15.0,11.0,-100.00,South,174,7.0,10.0,82,0.00,,,0.01,1.000000,,2013-01-07 08:53:00,
2013-01-07 03:02:00,15.0,11.0,-100.00,South,174,7.0,10.0,82,0.00,,,0.01,1.000000,,2013-01-07 09:02:00,
2013-01-07 03:32:00,17.0,12.0,-100.00,South,172,9.0,13.0,82,0.00,,,0.01,1.000000,,2013-01-07 09:32:00,
2013-01-07 03:42:00,17.0,12.0,-100.00,South,172,9.0,13.0,82,0.00,,,0.01,1.000000,,2013-01-07 09:42:00,
2013-01-07 03:52:00,17.0,12.0,-100.00,South,172,9.0,13.0,82,0.00,,,0.01,1.000000,,2013-01-07 09:52:00,
2013-01-07 04:02:00,17.0,12.0,-100.00,South,172,9.0,13.0,82,0.00,,,0.01,1.000000,,2013-01-07 10:02:00,
2013-01-07 04:33:00,16.0,12.0,-100.00,SSE,168,6.0,10.0,84,0.00,,,0.01,1.000000,,2013-01-07 10:33:00,
2013-01-07 04:43:00,16.0,12.0,-100.00,SSE,168,6.0,10.0,84,0.00,,,0.01,1.000000,,2013-01-07 10:43:00,
2013-01-07 04:52:00,16.0,12.0,-100.00,SSE,168,6.0,10.0,84,0.00,,,0.01,1.000000,,2013-01-07 10:52:00,
2013-01-07 05:02:00,16.0,12.0,-100.00,SSE,168,6.0,10.0,84,0.00,,,0.01,1.000000,,2013-01-07 11:02:00,
2013-01-07 05:33:00,15.0,12.0,-100.00,South,171,5.0,9.0,86,0.00,,,0.01,1.000000,,2013-01-07 11:33:00,
2013-01-07 05:43:00,15.0,12.0,-100.00,South,171,5.0,9.0,86,0.00,,,0.01,1.000000,,2013-01-07 11:43:00,
2013-01-07 05:53:00,15.0,12.0,-100.00,South,171,5.0,9.0,86,0.00,,,0.01,1.000000,,2013-01-07 11:53:00,
2013-01-07 06:03:00,15.0,12.0,-100.00,South,171,5.0,9.0,86,0.00,,,0.01,1.000000,,2013-01-07 12:03:00,
2013-01-07 06:33:00,17.0,14.0,-100.00,SSE,166,5.0,7.0,89,0.00,,,0.01,1.000000,,2013-01-07 12:33:00,
2013-01-07 06:43:00,17.0,14.0,-100.00,SSE,166,5.0,7.0,89,0.00,,,0.01,1.000000,,2013-01-07 12:43:00,
2013-01-07 06:53:00,17.0,14.0,-100.00,SSE,166,5.0,7.0,89,0.00,,,0.01,1.000000,,2013-01-07 12:53:00,
2013-01-07 07:02:00,17.0,14.0,-100.00,SSE,166,5.0,7.0,89,0.00,,,0.01,1.000000,,2013-01-07 13:02:00,
2013-01-07 07:33:00,23.0,18.0,-100.00,SSW,202,10.0,15.0,80,0.00,,,0.01,1.000000,,2013-01-07 13:33:00,
2013-01-07 07:43:00,23.0,18.0,-100.00,SSW,202,10.0,15.0,80,0.00,,,0.01,1.000000,,2013-01-07 13:43:00,
2013-01-07 07:53:00,23.0,18.0,-100.00,SSW,202,10.0,15.0,80,0.00,,,0.01,1.000000,,2013-01-07 13:53:00,
2013-01-07 08:03:00,23.0,18.0,-100.00,SSW,202,10.0,15.0,80,0.00,,,0.01,1.000000,,2013-01-07 14:03:00,
2013-01-07 08:33:00,24.0,19.0,-100.00,SSW,208,10.0,15.0,80,0.00,,,0.01,5.000000,,2013-01-07 14:33:00,
2013-01-07 08:43:00,24.0,19.0,-100.00,SSW,208,10.0,15.0,80,0.00,,,0.01,5.000000,,2013-01-07 14:43:00,
2013-01-07 08:53:00,24.0,19.0,-100.00,SSW,208,10.0,15.0,80,0.00,,,0.01,5.000000,,2013-01-07 14:53:00,
2013-01-07 09:03:00,24.0,19.0,-100.00,SSW,208,10.0,15.0,80,0.00,,,0.01,5.000000,,2013-01-07 15:03:00,
2013-01-07 09:33:00,26.0,20.0,-100.00,SW,233,8.0,15.0,78,0.00,,,0.01,51.000000,,2013-01-07 15:33:00,
2013-01-07 09:43:00,26.0,20.0,-100.00,SW,233,8.0,15.0,78,0.00,,,0.01,51.000000,,2013-01-07 15:43:00,
2013-01-07 09:53:00,26.0,20.0,-100.00,SW,233,8.0,15.0,78,0.00,,,0.01,51.000000,,2013-01-07 15:53:00,
2013-01-07 10:02:00,26.0,20.0,-100.00,SW,233,8.0,15.0,78,0.00,,,0.01,51.000000,,2013-01-07 16:02:00,
2013-01-07 10:33:00,27.0,20.0,-100.00,SW,216,9.0,14.0,76,0.00,,,0.01,92.000000,,2013-01-07 16:33:00,
2013-01-07 10:43:00,27.0,20.0,-100.00,SW,216,9.0,14.0,76,0.00,,,0.01,92.000000,,2013-01-07 16:43:00,
2013-01-07 10:53:00,27.0,20.0,-100.00,SW,216,9.0,14.0,76,0.00,,,0.01,92.000000,,2013-01-07 16:53:00,
2013-01-07 11:02:00,27.0,20.0,-100.00,SW,216,9.0,14.0,76,0.00,,,0.01,92.000000,,2013-01-07 17:02:00,
2013-01-07 11:33:00,30.0,21.0,-100.00,SW,222,10.0,15.0,68,0.00,,,0.01,240.000000,,2013-01-07 17:33:00,
2013-01-07 11:43:00,30.0,21.0,-100.00,SW,222,10.0,15.0,68,0.00,,,0.01,240.000000,,2013-01-07 17:43:00,
2013-01-07 11:53:00,30.0,21.0,-100.00,SW,222,10.0,15.0,68,0.00,,,0.01,240.000000,,2013-01-07 17:53:00,
2013-01-07 12:03:00,30.0,21.0,-100.00,SW,222,10.0,15.0,68,0.00,,,0.01,240.000000,,2013-01-07 18:03:00,
2013-01-07 12:33:00,33.0,22.0,-100.00,SW,220,11.0,15.0,63,0.00,,,0.01,378.000000,,2013-01-07 18:33:00,
2013-01-07 12:43:00,33.0,22.0,-100.00,SW,220,11.0,15.0,63,0.00,,,0.01,378.000000,,2013-01-07 18:43:00,
2013-01-07 12:53:00,33.0,22.0,-100.00,SW,220,11.0,15.0,63,0.00,,,0.01,378.000000,,2013-01-07 18:53:00,
2013-01-07 13:03:00,33.0,22.0,-100.00,SW,220,11.0,15.0,63,0.00,,,0.01,378.000000,,2013-01-07 19:03:00,
2013-01-07 13:33:00,36.0,23.0,-100.00,SSW,212,9.0,14.0,58,0.00,,,0.00,403.000000,,2013-01-07 19:33:00,
2013-01-07 13:43:00,36.0,23.0,-100.00,SSW,212,9.0,14.0,58,0.00,,,0.00,403.000000,,2013-01-07 19:43:00,
2013-01-07 13:53:00,36.0,23.0,-100.00,SSW,212,9.0,14.0,58,0.00,,,0.00,403.000000,,2013-01-07 19:53:00,
2013-01-07 14:03:00,36.0,23.0,-100.00,SSW,212,9.0,14.0,58,0.00,,,0.00,403.000000,,2013-01-07 20:03:00,
2013-01-07 14:33:00,37.0,24.0,-100.00,SSW,198,9.0,11.0,58,0.00,,,0.00,360.000000,,2013-01-07 20:33:00,
2013-01-07 14:43:00,37.0,24.0,-100.00,SSW,198,9.0,11.0,58,0.00,,,0.00,360.000000,,2013-01-07 20:43:00,
2013-01-07 14:53:00,37.0,24.0,-100.00,SSW,198,9.0,11.0,58,0.00,,,0.00,360.000000,,2013-01-07 20:53:00,
2013-01-07 15:03:00,37.0,24.0,-100.00,SSW,198,9.0,11.0,58,0.00,,,0.00,360.000000,,2013-01-07 21:03:00,
2013-01-07 15:33:00,36.0,24.0,-100.00,SSW,209,9.0,14.0,61,0.00,,,0.00,252.000000,,2013-01-07 21:33:00,
2013-01-07 15:43:00,36.0,24.0,-100.00,SSW,209,9.0,14.0,61,0.00,,,0.00,252.000000,,2013-01-07 21:43:00,
2013-01-07 15:53:00,36.0,24.0,-100.00,SSW,209,9.0,14.0,61,0.00,,,0.00,252.000000,,2013-01-07 21:53:00,
2013-01-07 16:02:00,36.0,24.0,-100.00,SSW,209,9.0,14.0,61,0.00,,,0.00,252.000000,,2013-01-07 22:02:00,
2013-01-07 16:33:00,36.0,24.0,-100.00,SW,222,8.0,13.0,61,0.00,,,0.00,92.000000,,2013-01-07 22:33:00,
2013-01-07 16:43:00,36.0,24.0,-100.00,SW,222,8.0,13.0,61,0.00,,,0.00,92.000000,,2013-01-07 22:43:00,
2013-01-07 16:53:00,36.0,24.0,-100.00,SW,222,8.0,13.0,61,0.00,,,0.00,92.000000,,2013-01-07 22:53:00,
2013-01-07 17:02:00,36.0,24.0,-100.00,SW,222,8.0,13.0,61,0.00,,,0.00,92.000000,,2013-01-07 23:02:00,
2013-01-07 17:33:00,33.0,23.0,-100.00,SW,216,7.0,11.0,67,0.00,,,0.00,11.000000,,2013-01-07 23:33:00,
2013-01-07 17:43:00,33.0,23.0,-100.00,SW,216,7.0,11.0,67,0.00,,,0.00,11.000000,,2013-01-07 23:43:00,
2013-01-07 17:53:00,33.0,23.0,-100.00,SW,216,7.0,11.0,67,0.00,,,0.00,11.000000,,2013-01-07 23:53:00,
2013-01-07 18:02:00,33.0,23.0,-100.00,SW,216,7.0,11.0,67,0.00,,,0.00,11.000000,,2013-01-08 00:02:00,
2013-01-07 18:33:00,31.0,23.0,-100.00,SW,218,6.0,10.0,71,0.00,,,0.00,1.000000,,2013-01-08 00:33:00,
2013-01-07 18:43:00,31.0,23.0,-100.00,SW,218,6.0,10.0,71,0.00,,,0.00,1.000000,,2013-01-08 00:43:00,
2013-01-07 18:53:00,31.0,23.0,-100.00,SW,218,6.0,10.0,71,0.00,,,0.00,1.000000,,2013-01-08 00:53:00,
2013-01-07 19:03:00,31.0,23.0,-100.00,SW,218,6.0,10.0,71,0.00,,,0.00,1.000000,,2013-01-08 01:03:00,
2013-01-07 19:33:00,29.0,22.0,-100.00,SSW,213,6.0,9.0,74,0.00,,,0.00,1.000000,,2013-01-08 01:33:00,
2013-01-07 19:42:00,29.0,22.0,-100.00,SSW,213,6.0,9.0,74,0.00,,,0.00,1.000000,,2013-01-08 01:42:00,
2013-01-07 19:52:00,29.0,22.0,-100.00,SSW,213,6.0,9.0,74,0.00,,,0.00,1.000000,,2013-01-08 01:52:00,
2013-01-07 20:02:00,29.0,22.0,-100.00,SSW,213,6.0,9.0,74,0.00,,,0.00,1.000000,,2013-01-08 02:02:00,
2013-01-07 20:33:00,29.0,22.0,-100.00,SW,225,6.0,10.0,74,0.00,,,0.00,1.000000,,2013-01-08 02:33:00,
2013-01-07 20:43:00,29.0,22.0,-100.00,SW,225,6.0,10.0,74,0.00,,,0.00,1.000000,,2013-01-08 02:43:00,
2013-01-07 20:53:00,29.0,22.0,-100.00,SW,225,6.0,10.0,74,0.00,,,0.00,1.000000,,2013-01-08 02:53:00,
2013-01-07 21:03:00,29.0,22.0,-100.00,SW,225,6.0,10.0,74,0.00,,,0.00,1.000000,,2013-01-08 03:03:00,
2013-01-07 21:33:00,25.0,19.0,-100.00,SSW,203,4.0,7.0,79,0.00,,,0.00,1.000000,,2013-01-08 03:33:00,
2013-01-07 21:43:00,25.0,19.0,-100.00,SSW,203,4.0,7.0,79,0.00,,,0.00,1.000000,,2013-01-08 03:43:00,
2013-01-07 21:53:00,25.0,19.0,-100.00,SSW,203,4.0,7.0,79,0.00,,,0.00,1.000000,,2013-01-08 03:53:00,
2013-01-07 22:02:00,25.0,19.0,-100.00,SSW,203,4.0,7.0,79,0.00,,,0.00,1.000000,,2013-01-08 04:02:00,
2013-01-07 22:32:00,21.0,18.0,-100.00,SW,232,3.0,5.0,87,0.00,,,0.00,1.000000,,2013-01-08 04:32:00,
2013-01-07 22:43:00,21.0,18.0,-100.00,SW,232,3.0,5.0,87,0.00,,,0.00,1.000000,,2013-01-08 04:43:00,
2013-01-07 22:52:00,21.0,18.0,-100.00,SW,232,3.0,5.0,87,0.00,,,0.00,1.000000,,2013-01-08 04:52:00,
2013-01-07 23:03:00,21.0,18.0,-100.00,SW,232,3.0,5.0,87,0.00,,,0.00,1.000000,,2013-01-08 05:03:00,
2013-01-07 23:33:00,19.0,15.0,-100.00,South,174,2.0,6.0,84,0.00,,,0.00,1.000000,,2013-01-08 05:33:00,
2013-01-07 23:43:00,19.0,15.0,-100.00,South,174,2.0,6.0,84,0.00,,,0.00,1.000000,,2013-01-08 05:43:00,
2013-01-07 23:53:00,19.0,15.0,-100.00,South,174,2.0,6.0,84,0.00,,,0.00,1.000000,,2013-01-08 05:53:00,